createdAt,value
2017-03-02T18:28:40.135Z,1007.07
2017-03-02T18:29:49.892Z,1007.07
2017-03-02T18:30:58.796Z,1007.1
2017-03-02T18:32:07.722Z,1007.14
2017-03-02T18:33:16.645Z,1007.2
2017-03-02T18:34:26.346Z,1007.19
2017-03-02T18:35:35.258Z,1007.22
2017-03-02T18:36:44.214Z,1007.26
2017-03-02T18:37:53.094Z,1007.25
2017-03-02T18:39:01.978Z,1007.27
2017-03-02T18:40:10.882Z,1007.32
2017-03-02T18:41:19.774Z,1007.28
2017-03-02T18:42:28.692Z,1007.28
2017-03-02T18:43:37.599Z,1007.35
2017-03-02T18:44:46.490Z,1007.35
2017-03-02T18:45:55.438Z,1007.39
2017-03-02T18:47:04.370Z,1007.4
2017-03-02T18:48:13.293Z,1007.42
2017-03-02T18:49:22.203Z,1007.36
2017-03-02T18:50:31.119Z,1007.39
2017-03-02T18:51:40.004Z,1007.37
2017-03-02T18:52:48.908Z,1007.4
2017-03-02T18:53:57.799Z,1007.44
2017-03-02T18:55:06.685Z,1007.41
2017-03-02T18:56:15.580Z,1007.39
2017-03-02T18:57:24.900Z,1007.38
2017-03-02T18:58:33.823Z,1007.43
2017-03-02T18:59:42.715Z,1007.43
2017-03-02T19:00:51.601Z,1007.44
2017-03-02T19:02:00.511Z,1007.55
2017-03-02T19:03:09.832Z,1007.54
2017-03-02T19:04:19.563Z,1007.54
2017-03-02T19:05:28.762Z,1007.51
2017-03-02T19:06:37.663Z,1007.53
2017-03-02T19:07:46.670Z,1007.54
2017-03-02T19:08:55.816Z,1007.59
2017-03-02T19:10:04.827Z,1007.57
2017-03-02T19:11:13.920Z,1007.54
2017-03-02T19:12:22.818Z,1007.59
2017-03-02T19:13:31.713Z,1007.64
2017-03-02T19:14:40.609Z,1007.63
2017-03-02T19:15:49.520Z,1007.62
2017-03-02T19:16:58.611Z,1007.7
2017-03-02T19:18:07.911Z,1007.71
2017-03-02T19:19:16.822Z,1007.71
2017-03-02T19:20:25.730Z,1007.75
2017-03-02T19:21:35.050Z,1007.72
2017-03-02T19:22:44.493Z,1007.82
2017-03-02T19:23:53.745Z,1007.8
2017-03-02T19:25:03.375Z,1007.75
2017-03-02T19:26:12.264Z,1007.78
2017-03-02T19:27:22.705Z,1007.87
2017-03-02T19:28:31.623Z,1007.87
2017-03-02T19:29:40.691Z,1007.83
2017-03-02T19:30:50.364Z,1007.88
2017-03-02T19:32:01.397Z,1007.93
2017-03-02T19:33:11.396Z,1007.93
2017-03-02T19:34:20.276Z,1007.98
2017-03-02T19:35:29.239Z,1007.96
2017-03-02T19:36:38.457Z,1007.99
2017-03-02T19:37:47.358Z,1008
2017-03-02T19:38:56.369Z,1007.99
2017-03-02T19:40:05.354Z,1007.97
2017-03-02T19:41:14.927Z,1007.97
2017-03-02T19:42:25.617Z,1008.02
2017-03-02T19:43:34.507Z,1008
2017-03-02T19:44:44.037Z,1008.04
2017-03-02T19:45:53.173Z,1008.05
2017-03-02T19:47:02.480Z,1008.05
2017-03-02T19:48:11.852Z,1008.06
2017-03-02T19:49:21.300Z,1008.09
2017-03-02T19:50:30.764Z,1008.05
2017-03-02T19:51:39.808Z,1008.09
2017-03-02T19:52:48.843Z,1008.09
2017-03-02T19:53:58.643Z,1008.09
2017-03-02T19:55:07.968Z,1008.06
2017-03-02T19:56:16.959Z,1008.13
2017-03-02T19:57:26.153Z,1008.13
2017-03-02T19:58:35.357Z,1008.13
2017-03-02T19:59:44.459Z,1008.16
2017-03-02T20:00:53.524Z,1008.14
2017-03-02T20:02:02.768Z,1008.18
2017-03-02T20:03:12.265Z,1008.2
2017-03-02T20:04:21.358Z,1008.19
2017-03-02T20:07:09.338Z,1008.21
2017-03-02T20:08:18.456Z,1008.25
2017-03-02T20:09:27.623Z,1008.22
2017-03-02T20:10:37.125Z,1008.27
2017-03-02T20:11:46.278Z,1008.35
2017-03-02T20:12:55.757Z,1008.34
2017-03-02T20:14:04.758Z,1008.29
2017-03-02T20:15:13.854Z,1008.38
2017-03-02T20:16:23.552Z,1008.38
2017-03-02T20:17:32.648Z,1008.36
2017-03-02T20:18:41.649Z,1008.34
2017-03-02T20:19:51.247Z,1008.42
2017-03-02T20:21:00.643Z,1008.34
2017-03-02T20:22:09.735Z,1008.4
2017-03-02T20:23:19.015Z,1008.45
2017-03-02T20:24:28.176Z,1008.37
2017-03-02T20:25:37.273Z,1008.43
2017-03-02T20:26:46.237Z,1008.47
2017-03-02T20:27:55.153Z,1008.45
2017-03-02T20:29:04.053Z,1008.45
2017-03-02T20:30:12.950Z,1008.44
2017-03-02T20:31:21.884Z,1008.5
2017-03-02T20:32:31.193Z,1008.48
2017-03-02T20:33:40.685Z,1008.48
2017-03-02T20:34:49.678Z,1008.5
2017-03-02T20:35:59.243Z,1008.54
2017-03-02T20:37:08.188Z,1008.54
2017-03-02T20:38:17.079Z,1008.6
2017-03-02T20:39:25.986Z,1008.56
2017-03-02T20:40:35.282Z,1008.56
2017-03-02T20:41:44.191Z,1008.55
2017-03-02T20:42:53.103Z,1008.58
2017-03-02T20:44:01.995Z,1008.6
2017-03-02T20:45:10.905Z,1008.59
2017-03-02T20:46:19.806Z,1008.66
2017-03-02T20:47:28.746Z,1008.64
2017-03-02T20:48:37.660Z,1008.64
2017-03-02T20:49:46.759Z,1008.61
2017-03-02T20:50:55.877Z,1008.63
2017-03-02T20:52:05.413Z,1008.59
2017-03-02T20:53:15.096Z,1008.58
2017-03-02T20:54:24.774Z,1008.6
2017-03-02T20:55:34.621Z,1008.63
2017-03-02T20:56:44.229Z,1008.62
2017-03-02T20:57:53.898Z,1008.6
2017-03-02T20:59:03.424Z,1008.63
2017-03-02T21:00:13.322Z,1008.66
2017-03-02T21:01:22.655Z,1008.62
2017-03-02T21:02:32.303Z,1008.6
2017-03-02T21:03:41.740Z,1008.64
2017-03-02T21:04:51.214Z,1008.6
2017-03-02T21:06:00.727Z,1008.61
2017-03-02T21:07:11.040Z,1008.65
2017-03-02T21:08:20.835Z,1008.68
2017-03-02T21:09:30.121Z,1008.6
2017-03-02T21:10:39.771Z,1008.63
2017-03-02T21:11:49.092Z,1008.63
2017-03-02T21:12:58.146Z,1008.67
2017-03-02T21:14:07.260Z,1008.67
2017-03-02T21:15:16.231Z,1008.69
2017-03-02T21:16:25.452Z,1008.68
2017-03-02T21:17:34.586Z,1008.71
2017-03-02T21:18:43.613Z,1008.69
2017-03-02T21:19:54.151Z,1008.75
2017-03-02T21:21:03.146Z,1008.73
2017-03-02T21:22:12.102Z,1008.74
2017-03-02T21:23:20.986Z,1008.82
2017-03-02T21:24:29.887Z,1008.84
2017-03-02T21:25:38.773Z,1008.83
2017-03-02T21:26:47.669Z,1008.83
2017-03-02T21:27:56.571Z,1008.88
2017-03-02T21:29:05.516Z,1008.85
2017-03-02T21:30:14.612Z,1008.89
2017-03-02T21:31:23.517Z,1008.9
2017-03-02T21:32:32.409Z,1008.88
2017-03-02T21:33:41.292Z,1008.95
2017-03-02T21:34:50.186Z,1008.95
2017-03-02T21:35:59.076Z,1008.95
2017-03-02T21:37:08.366Z,1008.96
2017-03-02T21:38:17.282Z,1008.97
2017-03-02T21:39:26.181Z,1008.98
2017-03-02T21:40:35.067Z,1008.95
2017-03-02T21:41:43.954Z,1008.98
2017-03-02T21:42:52.875Z,1009
2017-03-02T21:44:01.790Z,1008.99
2017-03-02T21:45:10.677Z,1008.99
2017-03-02T21:46:19.598Z,1009
2017-03-02T21:47:28.517Z,1009
2017-03-02T21:48:37.425Z,1009.05
2017-03-02T21:49:46.324Z,1009.05
2017-03-02T21:50:55.248Z,1009.04
2017-03-02T21:52:04.133Z,1009.07
2017-03-02T21:53:13.061Z,1009.08
2017-03-02T21:54:22.345Z,1009.11
2017-03-02T21:55:31.236Z,1009.11
2017-03-02T21:56:40.142Z,1009.16
2017-03-02T21:57:49.030Z,1009.14
2017-03-02T21:58:57.929Z,1009.2
2017-03-02T22:00:06.836Z,1009.18
2017-03-02T22:01:15.729Z,1009.21
2017-03-02T22:02:24.625Z,1009.16
2017-03-02T22:03:33.553Z,1009.16
2017-03-02T22:04:42.449Z,1009.23
2017-03-02T22:05:51.326Z,1009.22
2017-03-02T22:07:00.251Z,1009.19
2017-03-02T22:08:09.162Z,1009.32
2017-03-02T22:09:18.054Z,1009.33
2017-03-02T22:10:26.943Z,1009.46
2017-03-02T22:11:35.853Z,1009.39
2017-03-02T22:12:44.745Z,1009.49
2017-03-02T22:13:53.633Z,1009.53
2017-03-02T22:15:02.557Z,1009.49
2017-03-02T22:16:11.450Z,1009.58
2017-03-02T22:17:20.374Z,1009.54
2017-03-02T22:18:29.272Z,1009.6
2017-03-02T22:19:38.185Z,1009.59
2017-03-02T22:20:47.079Z,1009.58
2017-03-02T22:21:55.993Z,1009.65
2017-03-02T22:23:04.876Z,1009.65
2017-03-02T22:24:13.768Z,1009.69
2017-03-02T22:25:23.081Z,1009.73
2017-03-02T22:26:31.987Z,1009.68
2017-03-02T22:27:41.262Z,1009.72
2017-03-02T22:28:50.161Z,1009.72
2017-03-02T22:29:59.058Z,1009.77
2017-03-02T22:31:08.373Z,1009.73
2017-03-02T22:32:17.306Z,1009.74
2017-03-02T22:33:26.213Z,1009.72
2017-03-02T22:34:35.098Z,1009.83
2017-03-02T22:35:44.007Z,1009.81
2017-03-02T22:36:52.937Z,1009.82
2017-03-02T22:38:01.834Z,1009.82
2017-03-02T22:39:10.754Z,1009.78
2017-03-02T22:40:19.642Z,1009.82
2017-03-02T22:41:28.533Z,1009.89
2017-03-02T22:42:37.449Z,1009.89
2017-03-02T22:43:46.355Z,1009.89
2017-03-02T22:44:55.250Z,1009.88
2017-03-02T22:46:04.169Z,1009.89
2017-03-02T22:47:13.453Z,1009.9
2017-03-02T22:48:22.348Z,1010.02
2017-03-02T22:49:31.247Z,1010.03
2017-03-02T22:50:40.159Z,1009.98
2017-03-02T22:51:49.034Z,1010.01
2017-03-02T22:52:57.945Z,1010.01
2017-03-02T22:54:06.831Z,1010.01
2017-03-02T22:55:15.739Z,1010.05
2017-03-02T22:56:24.665Z,1010.11
2017-03-02T22:57:33.556Z,1010.07
2017-03-02T22:58:42.435Z,1010.07
2017-03-02T22:59:51.372Z,1010.07
2017-03-02T23:01:00.283Z,1010.06
2017-03-02T23:02:09.202Z,1010.08
2017-03-02T23:03:18.091Z,1010.15
2017-03-02T23:04:26.974Z,1010.22
2017-03-02T23:05:35.868Z,1010.17
2017-03-02T23:06:44.765Z,1010.2
2017-03-02T23:07:53.642Z,1010.21
2017-03-02T23:09:02.936Z,1010.19
2017-03-02T23:10:11.831Z,1010.21
2017-03-02T23:11:20.713Z,1010.18
2017-03-02T23:12:29.599Z,1010.19
2017-03-02T23:13:38.904Z,1010.25
2017-03-02T23:14:47.796Z,1010.27
2017-03-02T23:15:56.674Z,1010.34
2017-03-02T23:17:05.579Z,1010.26
2017-03-02T23:18:14.925Z,1010.3
2017-03-02T23:19:23.807Z,1010.32
2017-03-02T23:20:32.709Z,1010.32
2017-03-02T23:21:41.595Z,1010.37
2017-03-02T23:22:50.498Z,1010.37
2017-03-02T23:23:59.439Z,1010.4
2017-03-02T23:25:08.335Z,1010.35
2017-03-02T23:26:17.228Z,1010.38
2017-03-02T23:27:26.125Z,1010.38
2017-03-02T23:28:35.003Z,1010.38
2017-03-02T23:29:43.885Z,1010.46
2017-03-02T23:30:52.779Z,1010.44
2017-03-02T23:32:01.678Z,1010.51
2017-03-02T23:33:10.556Z,1010.44
2017-03-02T23:34:19.447Z,1010.42
2017-03-02T23:35:28.405Z,1010.53
2017-03-02T23:36:38.096Z,1010.51
2017-03-02T23:37:47.011Z,1010.52
2017-03-02T23:38:55.896Z,1010.58
2017-03-02T23:40:04.775Z,1010.55
2017-03-02T23:41:13.679Z,1010.56
2017-03-02T23:42:22.567Z,1010.57
2017-03-02T23:43:31.878Z,1010.63
2017-03-02T23:44:40.812Z,1010.66
2017-03-02T23:45:49.696Z,1010.68
2017-03-02T23:46:59.012Z,1010.69
2017-03-02T23:48:08.713Z,1010.71
2017-03-02T23:49:17.595Z,1010.72
2017-03-02T23:50:26.510Z,1010.68
2017-03-02T23:51:35.426Z,1010.75
2017-03-02T23:52:44.304Z,1010.7
2017-03-02T23:53:53.192Z,1010.78
2017-03-02T23:55:02.074Z,1010.73
2017-03-02T23:56:10.994Z,1010.79
2017-03-02T23:57:19.876Z,1010.82
2017-03-02T23:58:28.761Z,1010.86
2017-03-02T23:59:37.645Z,1010.85
